Time;durP1;ratioP1;P1;durP2;ratioP2;P2;SDS_P1;SDS_P2;PMS_P1;PMS_P2;Temp;Humidity;BMP_temperature;BMP_pressure;BME280_temperature;BME280_humidity;BME280_pressure;Samples;Min_cycle;Max_cycle;Signal;HPM_P1;HPM_P2
2021/07/13 20:39:43;;;;;;;9.38;7.97;;;;;;;26.13;63.15;100065.82;5202021;54;230996;-80
2021/07/13 20:44:49;;;;;;;8.85;7.85;;;;;;;26.00;62.85;100067.37;5143032;55;1136593;-83
2021/07/13 20:49:54;;;;;;;9.35;8.55;;;;;;;25.99;63.01;100078.74;5135703;55;1139091;-80
2021/07/13 20:55:00;;;;;;;11.08;8.58;;;;;;;25.88;63.02;100084.95;5185417;54;1138834;-86
2021/07/13 21:00:08;;;;;;;13.00;8.55;;;;;;;25.81;63.25;100094.55;5229346;54;1140745;-79
2021/07/13 21:05:14;;;;;;;13.95;8.63;;;;;;;25.83;63.57;100097.82;5239509;54;1140874;-82
2021/07/13 21:10:20;;;;;;;13.32;9.28;;;;;;;25.80;63.67;100101.02;5225177;54;1141096;-83
2021/07/13 21:15:26;;;;;;;14.47;8.35;;;;;;;25.68;63.86;100105.52;5245741;54;1140829;-83
2021/07/13 21:20:33;;;;;;;13.45;10.25;;;;;;;25.61;64.23;100119.66;5164815;55;1140981;-78
2021/07/13 21:25:39;;;;;;;9.55;8.70;;;;;;;25.68;64.73;100133.97;5193487;54;1142909;-80
2021/07/13 21:30:45;;;;;;;10.05;8.63;;;;;;;25.67;64.42;100133.66;5216894;54;1138846;-84
2021/07/13 21:35:50;;;;;;;11.10;8.88;;;;;;;25.52;64.46;100133.18;5217908;54;1140787;-78
2021/07/13 21:40:56;;;;;;;9.43;8.58;;;;;;;25.39;64.81;100130.10;5194886;54;1140946;-80
2021/07/13 21:46:02;;;;;;;9.23;8.28;;;;;;;25.31;64.99;100130.41;5199725;54;1138917;-81
2021/07/13 21:51:07;;;;;;;9.40;8.40;;;;;;;25.24;65.09;100130.47;5229481;54;1142670;-77
2021/07/13 21:56:13;;;;;;;9.60;8.75;;;;;;;25.15;65.33;100126.41;5170189;54;1138736;-77
2021/07/13 22:01:19;;;;;;;10.38;9.28;;;;;;;25.05;65.64;100135.57;5139967;55;1138961;-89
2021/07/13 22:06:25;;;;;;;9.83;7.85;;;;;;;25.02;65.92;100131.95;5139652;55;1140977;-88
2021/07/13 22:11:31;;;;;;;18.57;9.08;;;;;;;24.87;66.12;100110.63;5179286;54;1138715;-85
2021/07/13 22:16:37;;;;;;;12.85;8.45;;;;;;;24.75;66.47;100102.11;5225930;54;1141245;-80
2021/07/13 22:21:44;;;;;;;13.60;9.75;;;;;;;24.67;66.88;100093.73;5226783;54;1140887;-87
2021/07/13 22:26:49;;;;;;;13.00;9.65;;;;;;;24.64;67.16;100079.30;5229081;54;1140897;-86
2021/07/13 22:31:55;;;;;;;14.35;10.05;;;;;;;24.60;67.37;100044.79;5228925;54;1140837;-84
2021/07/13 22:37:01;;;;;;;12.40;9.85;;;;;;;24.58;67.67;100042.86;5226463;54;1143174;-84
2021/07/13 22:42:07;;;;;;;17.43;10.40;;;;;;;24.51;67.89;100039.67;5233105;54;1140847;-82
2021/07/13 22:47:13;;;;;;;11.53;10.32;;;;;;;24.43;68.35;100040.49;5226683;54;1143331;-83
2021/07/13 22:52:18;;;;;;;14.28;10.58;;;;;;;24.50;68.75;100040.73;5226585;54;1142963;-79
2021/07/13 22:57:24;;;;;;;12.58;10.50;;;;;;;24.60;68.86;100051.03;5226583;54;1143235;-77
2021/07/13 23:02:30;;;;;;;13.32;11.05;;;;;;;24.68;68.85;100064.81;5225629;54;1142905;-82
2021/07/13 23:07:36;;;;;;;18.35;11.45;;;;;;;24.77;68.79;100062.94;5226512;54;1143149;-86
2021/07/13 23:12:42;;;;;;;12.75;10.43;;;;;;;24.93;68.66;100076.94;5185781;54;1142885;-81
2021/07/13 23:17:52;;;;;;;14.23;11.00;;;;;;;25.07;68.43;100084.73;5138646;55;1142972;-82
2021/07/13 23:22:58;;;;;;;18.65;11.90;;;;;;;25.13;68.30;100077.09;5141375;55;1142942;-84
2021/07/13 23:28:04;;;;;;;17.05;12.37;;;;;;;25.15;68.14;100074.16;5137745;55;1142842;-84
2021/07/13 23:33:10;;;;;;;11.85;10.60;;;;;;;25.14;68.07;100069.27;5137799;55;1142918;-82
2021/07/13 23:38:16;;;;;;;12.23;11.03;;;;;;;25.10;68.07;100067.23;5138137;55;1143151;-80
2021/07/13 23:43:21;;;;;;;14.20;11.53;;;;;;;25.03;68.20;100060.55;5147022;55;1143021;-82
2021/07/13 23:48:28;;;;;;;11.88;10.65;;;;;;;24.92;68.19;100064.47;5153028;55;1143412;-79
2021/07/13 23:53:33;;;;;;;12.53;11.45;;;;;;;24.82;68.40;100063.63;5151029;55;1143271;-81
2021/07/13 23:58:39;;;;;;;12.03;10.98;;;;;;;24.60;68.69;100064.55;5154819;55;1142871;-78
